createdAt,value
2023-02-01T00:03:32.051Z,98717.00
2023-02-01T00:08:55.898Z,98727.31
2023-02-01T00:14:18.708Z,98715.56
2023-02-01T00:19:40.787Z,98752.50
2023-02-01T00:25:03.061Z,98757.81
2023-02-01T00:30:25.567Z,98757.31
2023-02-01T00:35:47.907Z,98742.13
2023-02-01T00:41:14.677Z,98772.47
2023-02-01T00:46:36.900Z,98745.81
2023-02-01T00:51:59.004Z,98771.91
2023-02-01T00:57:21.712Z,98754.03
2023-02-01T01:02:46.740Z,98749.53
2023-02-01T01:08:08.612Z,98737.50
2023-02-01T01:13:30.695Z,98760.94
2023-02-01T01:18:52.819Z,98748.97
2023-02-01T01:24:15.205Z,98746.00
2023-02-01T01:29:37.925Z,98721.22
2023-02-01T01:35:00.606Z,98763.09
2023-02-01T01:40:23.560Z,98756.91
2023-02-01T01:45:46.007Z,98739.31
2023-02-01T01:51:12.255Z,98772.84
2023-02-01T01:56:37.148Z,98756.28
2023-02-01T02:01:59.132Z,98734.44
2023-02-01T02:07:32.510Z,98771.97
2023-02-01T02:12:54.417Z,98786.59
2023-02-01T02:18:53.726Z,98802.78
2023-02-01T02:24:40.837Z,98778.81
2023-02-01T02:30:25.470Z,98811.78
2023-02-01T02:36:05.304Z,98800.31
2023-02-01T02:41:54.267Z,98809.31
2023-02-01T02:47:33.173Z,98791.91
2023-02-01T02:53:32.629Z,98789.25
2023-02-01T02:59:14.956Z,98808.09
2023-02-01T03:04:37.585Z,98818.47
2023-02-01T03:10:05.569Z,98810.16
2023-02-01T03:16:15.016Z,98835.75
2023-02-01T03:21:39.953Z,98843.13
2023-02-01T03:27:26.227Z,98842.81
2023-02-01T03:33:01.225Z,98834.53
2023-02-01T03:38:33.578Z,98848.38
2023-02-01T03:44:18.147Z,98854.53
2023-02-01T03:49:46.683Z,98848.59
2023-02-01T03:55:11.977Z,98835.00
2023-02-01T04:00:34.440Z,98853.09
2023-02-01T04:05:56.814Z,98855.38
2023-02-01T04:11:22.773Z,98878.25
2023-02-01T04:16:45.461Z,98881.66
2023-02-01T04:22:07.687Z,98876.84
2023-02-01T04:27:29.989Z,98886.47
2023-02-01T04:32:51.582Z,98877.63
2023-02-01T04:38:13.635Z,98897.84
2023-02-01T04:43:35.626Z,98908.94
2023-02-01T04:48:57.908Z,98917.47
2023-02-01T04:54:20.560Z,98917.38
2023-02-01T04:59:42.686Z,98929.88
2023-02-01T05:05:04.648Z,98938.84
2023-02-01T05:10:26.517Z,98945.75
2023-02-01T05:15:48.699Z,98914.03
2023-02-01T05:21:10.488Z,98939.84
2023-02-01T05:26:33.463Z,98970.09
2023-02-01T05:31:55.712Z,98969.31
2023-02-01T05:37:18.171Z,98970.84
2023-02-01T05:42:40.119Z,98958.50
2023-02-01T05:48:02.237Z,98969.00
2023-02-01T05:53:24.587Z,98976.13
2023-02-01T05:58:46.832Z,98994.97
2023-02-01T06:04:08.971Z,98989.66
2023-02-01T06:09:31.612Z,98997.94
2023-02-01T06:14:53.948Z,99006.66
2023-02-01T06:20:17.125Z,99017.34
2023-02-01T06:25:41.674Z,99006.34
2023-02-01T06:31:10.477Z,99027.44
2023-02-01T06:36:32.640Z,99001.38
2023-02-01T06:41:54.357Z,99012.78
2023-02-01T06:47:16.443Z,99032.31
2023-02-01T06:52:38.798Z,99020.28
2023-02-01T06:58:02.550Z,99017.91
2023-02-01T07:03:29.679Z,99038.44
2023-02-01T07:08:52.365Z,99036.59
2023-02-01T07:14:14.540Z,99038.91
2023-02-01T07:19:39.459Z,99046.91
2023-02-01T07:25:02.006Z,99048.66
2023-02-01T07:30:25.284Z,99062.31
2023-02-01T07:35:48.066Z,99054.53
2023-02-01T07:41:11.083Z,99074.97
2023-02-01T07:46:33.189Z,99058.72
2023-02-01T07:51:55.453Z,99049.09
2023-02-01T07:57:17.487Z,99066.72
2023-02-01T08:02:39.345Z,99079.09
2023-02-01T08:08:01.457Z,99073.22
2023-02-01T08:13:23.378Z,99052.47
2023-02-01T08:18:46.096Z,99067.91
2023-02-01T08:24:10.183Z,99068.56
2023-02-01T08:29:32.635Z,99051.72
2023-02-01T08:34:55.068Z,99058.13
2023-02-01T08:40:17.714Z,99056.38
2023-02-01T08:45:41.544Z,99052.13
2023-02-01T08:51:13.185Z,99062.31
2023-02-01T08:56:35.607Z,99046.84
2023-02-01T09:01:57.992Z,99072.41
2023-02-01T09:07:20.445Z,99061.19
2023-02-01T09:12:42.601Z,99052.44
2023-02-01T09:18:05.167Z,99060.06
2023-02-01T09:23:27.564Z,99066.47
2023-02-01T09:28:50.003Z,99068.16
2023-02-01T09:34:13.682Z,99090.13
2023-02-01T09:39:36.037Z,99093.03
2023-02-01T09:45:16.235Z,99068.38
2023-02-01T09:50:45.190Z,99086.38
2023-02-01T09:56:13.547Z,99084.03
2023-02-01T10:01:37.986Z,99069.69
2023-02-01T10:07:16.826Z,99073.34
2023-02-01T10:13:05.449Z,99089.22
2023-02-01T10:18:45.817Z,99091.06
2023-02-01T10:24:43.860Z,99099.19
2023-02-01T10:30:16.305Z,99098.66
2023-02-01T10:35:40.023Z,99088.47
2023-02-01T10:41:23.310Z,99091.72
2023-02-01T10:46:45.306Z,99076.66
2023-02-01T10:52:22.667Z,99073.00
2023-02-01T10:58:00.495Z,99084.63
2023-02-01T11:03:57.567Z,99061.97
2023-02-01T11:09:23.478Z,99101.56
2023-02-01T11:14:49.190Z,99079.75
2023-02-01T11:20:25.447Z,99094.28
2023-02-01T11:25:56.944Z,99099.88
2023-02-01T11:37:01.567Z,99100.66
2023-02-01T11:42:24.315Z,99104.72
2023-02-01T11:47:47.587Z,99102.81
2023-02-01T11:53:49.745Z,99111.88
2023-02-01T11:59:56.410Z,99119.91
2023-02-01T12:05:38.126Z,99127.03
2023-02-01T12:11:31.420Z,99128.16
2023-02-01T12:17:30.887Z,99128.78
2023-02-01T12:23:05.187Z,99132.44
2023-02-01T12:28:55.344Z,99126.00
2023-02-01T12:34:45.174Z,99143.97
2023-02-01T12:40:35.358Z,99139.53
2023-02-01T12:46:03.455Z,99146.38
2023-02-01T12:51:34.868Z,99137.84
2023-02-01T12:57:04.584Z,99128.56
2023-02-01T13:02:43.896Z,99127.53
2023-02-01T13:08:09.317Z,99153.03
2023-02-01T13:13:44.282Z,99134.88
2023-02-01T13:19:43.258Z,99145.25
2023-02-01T13:25:14.565Z,99139.31
2023-02-01T13:30:49.474Z,99147.78
2023-02-01T13:36:37.359Z,99153.56
2023-02-01T13:42:26.192Z,99149.22
2023-02-01T13:47:54.377Z,99131.16
2023-02-01T13:53:23.401Z,99125.44
2023-02-01T13:58:47.325Z,99147.91
2023-02-01T14:04:48.421Z,99155.38
2023-02-01T14:10:57.642Z,99172.97
2023-02-01T14:16:19.692Z,99176.78
2023-02-01T14:22:00.243Z,99182.63
2023-02-01T14:27:28.680Z,99184.97
2023-02-01T14:32:50.801Z,99193.31
2023-02-01T14:38:13.109Z,99195.06
2023-02-01T14:44:13.534Z,99201.16
2023-02-01T14:49:43.896Z,99198.75
2023-02-01T14:55:15.726Z,99187.41
2023-02-01T15:00:37.726Z,99195.44
2023-02-01T15:06:02.307Z,99205.47
2023-02-01T15:11:24.677Z,99187.31
2023-02-01T15:16:55.189Z,99186.09
2023-02-01T15:22:21.325Z,99183.09
2023-02-01T15:27:43.313Z,99194.03
2023-02-01T15:33:23.536Z,99198.41
2023-02-01T15:38:45.985Z,99201.19
2023-02-01T15:44:34.633Z,99203.91
2023-02-01T15:49:58.767Z,99201.63
2023-02-01T15:55:42.317Z,99213.25
2023-02-01T16:01:08.347Z,99212.56
2023-02-01T16:06:32.838Z,99198.00
2023-02-01T16:12:01.377Z,99216.63
2023-02-01T16:17:23.429Z,99194.69
2023-02-01T16:22:45.863Z,99218.81
2023-02-01T16:28:13.241Z,99215.47
2023-02-01T16:33:44.075Z,99227.06
2023-02-01T16:39:06.212Z,99212.97
2023-02-01T16:44:28.787Z,99207.69
2023-02-01T16:49:54.626Z,99203.31
2023-02-01T16:55:23.576Z,99221.44
2023-02-01T17:00:47.333Z,99227.91
2023-02-01T17:06:13.312Z,99220.75
2023-02-01T17:11:40.955Z,99219.03
2023-02-01T17:17:15.709Z,99231.56
2023-02-01T17:22:39.439Z,99236.75
2023-02-01T17:28:01.777Z,99230.28
2023-02-01T17:33:29.382Z,99240.19
2023-02-01T17:39:05.583Z,99233.28
2023-02-01T17:44:31.520Z,99236.16
2023-02-01T17:49:57.142Z,99211.56
2023-02-01T17:55:25.557Z,99233.75
2023-02-01T18:00:52.140Z,99237.75
2023-02-01T18:06:18.951Z,99216.97
2023-02-01T18:11:42.327Z,99214.78
2023-02-01T18:17:04.309Z,99248.09
2023-02-01T18:22:26.435Z,99240.28
2023-02-01T18:27:50.513Z,99238.66
2023-02-01T18:33:14.435Z,99247.06
2023-02-01T18:38:36.459Z,99230.38
2023-02-01T18:43:58.588Z,99237.41
2023-02-01T18:49:22.905Z,99233.63
2023-02-01T18:54:58.808Z,99240.28
2023-02-01T19:00:23.064Z,99240.97
2023-02-01T19:05:47.135Z,99234.28
2023-02-01T19:11:10.707Z,99243.13
2023-02-01T19:16:34.445Z,99231.53
2023-02-01T19:21:56.477Z,99244.03
2023-02-01T19:27:18.454Z,99233.72
2023-02-01T19:32:43.808Z,99242.78
2023-02-01T19:38:06.741Z,99238.75
2023-02-01T19:43:29.682Z,99237.28
2023-02-01T19:48:52.081Z,99255.31
2023-02-01T19:54:14.149Z,99243.25
2023-02-01T19:59:36.307Z,99243.47
2023-02-01T20:04:57.971Z,99242.91
2023-02-01T20:10:20.625Z,99255.66
2023-02-01T20:15:43.318Z,99245.06
2023-02-01T20:21:05.641Z,99259.53
2023-02-01T20:26:31.368Z,99279.75
2023-02-01T20:31:53.253Z,99283.44
2023-02-01T20:37:15.505Z,99278.16
2023-02-01T20:42:37.487Z,99297.56
2023-02-01T20:47:59.753Z,99303.06
2023-02-01T20:53:26.636Z,99255.72
2023-02-01T20:58:49.338Z,99261.78
2023-02-01T21:04:14.215Z,99266.28
2023-02-01T21:09:36.343Z,99276.63
2023-02-01T21:14:58.837Z,99272.28
2023-02-01T21:20:20.884Z,99294.47
2023-02-01T21:25:44.225Z,99300.88
2023-02-01T21:31:07.486Z,99296.19
2023-02-01T21:36:32.486Z,99290.78
2023-02-01T21:42:13.307Z,99285.94
2023-02-01T21:53:46.250Z,99283.91
2023-02-01T21:59:10.648Z,99294.00
2023-02-01T22:04:33.566Z,99294.22
2023-02-01T22:09:55.607Z,99274.69
2023-02-01T22:15:18.131Z,99289.84
2023-02-01T22:20:40.336Z,99280.06
2023-02-01T22:26:07.080Z,99295.34
2023-02-01T22:31:29.215Z,99272.81
2023-02-01T22:36:51.330Z,99261.19
2023-02-01T22:42:13.507Z,99261.97
2023-02-01T22:47:35.423Z,99276.63
2023-02-01T22:52:57.623Z,99266.97
2023-02-01T22:58:20.175Z,99290.97
2023-02-01T23:03:41.881Z,99256.34
2023-02-01T23:09:15.663Z,99301.66
2023-02-01T23:14:57.679Z,99287.19
2023-02-01T23:20:20.419Z,99272.09
2023-02-01T23:25:42.740Z,99300.84
2023-02-01T23:31:13.401Z,99291.22
2023-02-01T23:36:35.832Z,99301.31
2023-02-01T23:41:57.705Z,99292.81
2023-02-01T23:47:22.275Z,99290.44
2023-02-01T23:52:44.475Z,99287.44
2023-02-01T23:58:06.258Z,99282.16
